SNJ109 RJGG-RJFM
Flight info
| Callsign | SNJ109 |
|---|---|
| Flight time | 1h 17m |
| Altitude | 30000 |
| Route | ESPAN KEC Y24 SUC Y402 RYUGU |
| Aircraft | B738/M-SDE2E3FGHIRWXY/LB1 |
Departure
| Time | 2026-05-01 11:49 |
|---|---|
| Airport | Chubu Centrair International Airport (RJGG) |
Arrival
| Time | 2026-05-01 13:07 |
|---|---|
| Airport | Miyazaki Airport (RJFM) |
| Time | Latitude | Longitude | Altitude | Speed | Heading |
|---|---|---|---|---|---|
| 2026-05-01 11:40 | 34.86234 | 136.81244 | 21 ft | 0 kts | 79° |
| 2026-05-01 11:40 | 34.86232 | 136.81233 | 21 ft | 2 kts | 79° |
| 2026-05-01 11:41 | 34.86229 | 136.81213 | 24 ft | 2 kts | 79° |
| 2026-05-01 11:41 | 34.86226 | 136.81194 | 25 ft | 2 kts | 79° |
| 2026-05-01 11:41 | 34.86222 | 136.81175 | 24 ft | 2 kts | 79° |
| 2026-05-01 11:41 | 34.86221 | 136.81155 | 23 ft | 2 kts | 104° |
| 2026-05-01 11:42 | 34.86228 | 136.81137 | 24 ft | 2 kts | 140° |
| 2026-05-01 11:42 | 34.86236 | 136.81131 | 25 ft | 0 kts | 168° |
| 2026-05-01 11:43 | 34.86232 | 136.81132 | 22 ft | 2 kts | 168° |
| 2026-05-01 11:43 | 34.86180 | 136.81143 | 21 ft | 12 kts | 170° |
| 2026-05-01 11:44 | 34.86071 | 136.80992 | 21 ft | 15 kts | 258° |
| 2026-05-01 11:44 | 34.86055 | 136.80904 | 21 ft | 9 kts | 258° |
| 2026-05-01 11:44 | 34.86009 | 136.80858 | 21 ft | 10 kts | 187° |
| 2026-05-01 11:44 | 34.85916 | 136.80875 | 22 ft | 18 kts | 167° |
| 2026-05-01 11:45 | 34.85768 | 136.80910 | 22 ft | 28 kts | 169° |
| 2026-05-01 11:45 | 34.85556 | 136.80962 | 21 ft | 32 kts | 169° |
| 2026-05-01 11:45 | 34.85344 | 136.81013 | 21 ft | 30 kts | 169° |
| 2026-05-01 11:45 | 34.85143 | 136.81060 | 21 ft | 28 kts | 169° |
| 2026-05-01 11:46 | 34.84954 | 136.81107 | 23 ft | 27 kts | 168° |
| 2026-05-01 11:46 | 34.84779 | 136.81149 | 23 ft | 25 kts | 169° |
| 2026-05-01 11:46 | 34.84615 | 136.81189 | 21 ft | 23 kts | 168° |
| 2026-05-01 11:46 | 34.84469 | 136.81207 | 24 ft | 19 kts | 204° |
| 2026-05-01 11:47 | 34.84432 | 136.81114 | 21 ft | 8 kts | 258° |
| 2026-05-01 11:47 | 34.84422 | 136.81050 | 21 ft | 8 kts | 258° |
| 2026-05-01 11:47 | 34.84411 | 136.80987 | 23 ft | 7 kts | 258° |
| 2026-05-01 11:47 | 34.84405 | 136.80917 | 21 ft | 9 kts | 280° |
| 2026-05-01 11:48 | 34.84453 | 136.80867 | 22 ft | 6 kts | 343° |
| 2026-05-01 11:48 | 34.84458 | 136.80866 | 22 ft | 0 kts | 347° |
| 2026-05-01 11:48 | 34.84469 | 136.80863 | 22 ft | 8 kts | 348° |
| 2026-05-01 11:49 | 34.84809 | 136.80782 | 25 ft | 93 kts | 348° |
| 2026-05-01 11:49 | 34.85699 | 136.80573 | 44 ft | 163 kts | 342° |
| 2026-05-01 11:49 | 34.86861 | 136.80346 | 811 ft | 168 kts | 344° |
| 2026-05-01 11:49 | 34.87955 | 136.79926 | 1836 ft | 163 kts | 318° |
| 2026-05-01 11:50 | 34.88542 | 136.78778 | 2528 ft | 173 kts | 278° |
| 2026-05-01 11:50 | 34.88262 | 136.77258 | 2786 ft | 205 kts | 238° |
| 2026-05-01 11:50 | 34.87216 | 136.75949 | 3223 ft | 223 kts | 229° |
| 2026-05-01 11:50 | 34.86055 | 136.74550 | 3563 ft | 244 kts | 230° |
| 2026-05-01 11:51 | 34.84848 | 136.73063 | 4302 ft | 254 kts | 230° |
| 2026-05-01 11:51 | 34.83358 | 136.71822 | 5165 ft | 270 kts | 205° |
| 2026-05-01 11:51 | 34.81467 | 136.71489 | 6107 ft | 283 kts | 180° |
| 2026-05-01 11:51 | 34.79497 | 136.71892 | 6975 ft | 290 kts | 173° |
| 2026-05-01 11:52 | 34.77507 | 136.72400 | 7942 ft | 295 kts | 173° |
| 2026-05-01 11:52 | 34.75477 | 136.72603 | 8896 ft | 291 kts | 194° |
| 2026-05-01 11:52 | 34.73496 | 136.72138 | 9932 ft | 291 kts | 199° |
| 2026-05-01 11:52 | 34.71479 | 136.71602 | 10626 ft | 305 kts | 200° |
| 2026-05-01 11:53 | 34.69315 | 136.71024 | 10816 ft | 332 kts | 199° |
| 2026-05-01 11:53 | 34.66973 | 136.70417 | 11052 ft | 355 kts | 198° |
| 2026-05-01 11:53 | 34.64518 | 136.69806 | 11654 ft | 364 kts | 198° |
| 2026-05-01 11:53 | 34.62024 | 136.69196 | 12433 ft | 367 kts | 198° |
| 2026-05-01 11:54 | 34.59511 | 136.68580 | 13313 ft | 370 kts | 198° |
| 2026-05-01 11:54 | 34.56973 | 136.67956 | 14089 ft | 373 kts | 198° |
| 2026-05-01 11:54 | 34.54411 | 136.67325 | 14826 ft | 379 kts | 199° |
| 2026-05-01 11:54 | 34.51836 | 136.66691 | 15526 ft | 384 kts | 199° |
| 2026-05-01 11:55 | 34.49193 | 136.66042 | 16231 ft | 390 kts | 199° |
| 2026-05-01 11:55 | 34.46514 | 136.65384 | 16949 ft | 395 kts | 199° |
| 2026-05-01 11:55 | 34.43806 | 136.64721 | 17664 ft | 400 kts | 200° |
| 2026-05-01 11:55 | 34.41059 | 136.64048 | 18284 ft | 405 kts | 200° |
| 2026-05-01 11:56 | 34.38274 | 136.63368 | 18904 ft | 409 kts | 200° |
| 2026-05-01 11:56 | 34.35503 | 136.62692 | 19545 ft | 413 kts | 200° |
| 2026-05-01 11:56 | 34.32675 | 136.62002 | 20200 ft | 416 kts | 201° |
| 2026-05-01 11:56 | 34.29821 | 136.61305 | 20735 ft | 421 kts | 201° |
| 2026-05-01 11:57 | 34.26933 | 136.60601 | 21309 ft | 425 kts | 201° |
| 2026-05-01 11:57 | 34.24020 | 136.59892 | 21872 ft | 429 kts | 201° |
| 2026-05-01 11:57 | 34.21073 | 136.59168 | 22428 ft | 432 kts | 203° |
| 2026-05-01 11:57 | 34.18306 | 136.57956 | 22909 ft | 414 kts | 220° |
| 2026-05-01 11:58 | 34.16046 | 136.55928 | 23409 ft | 400 kts | 232° |
| 2026-05-01 11:58 | 34.13973 | 136.53672 | 23870 ft | 402 kts | 233° |
| 2026-05-01 11:58 | 34.09832 | 136.49083 | 24826 ft | 406 kts | 233° |
| 2026-05-01 11:59 | 34.07740 | 136.46780 | 25276 ft | 408 kts | 232° |
| 2026-05-01 11:59 | 34.05632 | 136.44476 | 25742 ft | 410 kts | 232° |
| 2026-05-01 11:59 | 34.03503 | 136.42165 | 26214 ft | 412 kts | 232° |
| 2026-05-01 12:00 | 33.99249 | 136.37575 | 27370 ft | 409 kts | 232° |
| 2026-05-01 12:00 | 33.97161 | 136.35329 | 27995 ft | 406 kts | 232° |
| 2026-05-01 12:00 | 33.92978 | 136.30836 | 29358 ft | 399 kts | 232° |
| 2026-05-01 12:01 | 33.90910 | 136.28613 | 29718 ft | 399 kts | 232° |
| 2026-05-01 12:01 | 33.86798 | 136.24195 | 29719 ft | 394 kts | 232° |
| 2026-05-01 12:02 | 33.82695 | 136.19787 | 29743 ft | 395 kts | 232° |
| 2026-05-01 12:02 | 33.78587 | 136.15382 | 29738 ft | 396 kts | 232° |
| 2026-05-01 12:03 | 33.74476 | 136.10984 | 29736 ft | 395 kts | 232° |
| 2026-05-01 12:03 | 33.70381 | 136.06611 | 29742 ft | 393 kts | 232° |
| 2026-05-01 12:04 | 33.66333 | 136.02292 | 29750 ft | 391 kts | 232° |
| 2026-05-01 12:04 | 33.62279 | 135.97971 | 29748 ft | 389 kts | 232° |
| 2026-05-01 12:05 | 33.58230 | 135.93660 | 29753 ft | 389 kts | 232° |
| 2026-05-01 12:05 | 33.52154 | 135.87200 | 29760 ft | 389 kts | 232° |
| 2026-05-01 12:06 | 33.48093 | 135.82891 | 29765 ft | 390 kts | 232° |
| 2026-05-01 12:06 | 33.44663 | 135.78145 | 29778 ft | 369 kts | 251° |
| 2026-05-01 12:07 | 33.43042 | 135.72375 | 29774 ft | 367 kts | 261° |
| 2026-05-01 12:07 | 33.41724 | 135.66485 | 29781 ft | 366 kts | 261° |
| 2026-05-01 12:08 | 33.40373 | 135.60601 | 29802 ft | 367 kts | 260° |
| 2026-05-01 12:08 | 33.38992 | 135.54723 | 29796 ft | 367 kts | 260° |
| 2026-05-01 12:09 | 33.37602 | 135.48850 | 29801 ft | 367 kts | 260° |
| 2026-05-01 12:09 | 33.36202 | 135.42984 | 29795 ft | 367 kts | 260° |
| 2026-05-01 12:10 | 33.33934 | 135.34244 | 29812 ft | 367 kts | 259° |
| 2026-05-01 12:11 | 33.31651 | 135.25518 | 29817 ft | 366 kts | 259° |
| 2026-05-01 12:11 | 33.30147 | 135.19749 | 29823 ft | 366 kts | 259° |
| 2026-05-01 12:12 | 33.28628 | 135.13933 | 29828 ft | 366 kts | 259° |
| 2026-05-01 12:12 | 33.27105 | 135.08110 | 29829 ft | 366 kts | 259° |
| 2026-05-01 12:13 | 33.25840 | 135.03284 | 29830 ft | 366 kts | 259° |
| 2026-05-01 12:13 | 33.24336 | 134.97474 | 29830 ft | 365 kts | 261° |
| 2026-05-01 12:14 | 33.22937 | 134.91651 | 29829 ft | 364 kts | 262° |
| 2026-05-01 12:14 | 33.21544 | 134.85825 | 29827 ft | 364 kts | 262° |
| 2026-05-01 12:15 | 33.20145 | 134.80025 | 29842 ft | 363 kts | 262° |
| 2026-05-01 12:15 | 33.18742 | 134.74239 | 29839 ft | 363 kts | 262° |
| 2026-05-01 12:16 | 33.17337 | 134.68459 | 29839 ft | 362 kts | 262° |
| 2026-05-01 12:16 | 33.15931 | 134.62700 | 29839 ft | 361 kts | 263° |
| 2026-05-01 12:17 | 33.14515 | 134.56950 | 29842 ft | 360 kts | 263° |
| 2026-05-01 12:17 | 33.13110 | 134.51258 | 29836 ft | 360 kts | 263° |
| 2026-05-01 12:18 | 33.11694 | 134.45528 | 29837 ft | 359 kts | 263° |
| 2026-05-01 12:18 | 33.10283 | 134.39829 | 29842 ft | 359 kts | 263° |
| 2026-05-01 12:19 | 33.08864 | 134.34108 | 29843 ft | 358 kts | 264° |
| 2026-05-01 12:19 | 33.07448 | 134.28412 | 29844 ft | 358 kts | 264° |
| 2026-05-01 12:20 | 33.06029 | 134.22711 | 29843 ft | 358 kts | 264° |
| 2026-05-01 12:20 | 33.04651 | 134.17041 | 29852 ft | 358 kts | 264° |
| 2026-05-01 12:21 | 33.03274 | 134.11329 | 29856 ft | 359 kts | 264° |
| 2026-05-01 12:21 | 33.01891 | 134.05615 | 29859 ft | 359 kts | 264° |
| 2026-05-01 12:22 | 33.00499 | 133.99889 | 29858 ft | 359 kts | 264° |
| 2026-05-01 12:22 | 32.99105 | 133.94170 | 29865 ft | 359 kts | 264° |
| 2026-05-01 12:23 | 32.97709 | 133.88453 | 29859 ft | 359 kts | 264° |
| 2026-05-01 12:23 | 32.96310 | 133.82737 | 29862 ft | 359 kts | 264° |
| 2026-05-01 12:24 | 32.94919 | 133.77067 | 29869 ft | 359 kts | 264° |
| 2026-05-01 12:24 | 32.93508 | 133.71326 | 29870 ft | 359 kts | 265° |
| 2026-05-01 12:25 | 32.91410 | 133.62812 | 29876 ft | 359 kts | 264° |
| 2026-05-01 12:26 | 32.89999 | 133.57101 | 29875 ft | 359 kts | 264° |
| 2026-05-01 12:26 | 32.87870 | 133.48539 | 29872 ft | 360 kts | 264° |
| 2026-05-01 12:27 | 32.85727 | 133.39948 | 29889 ft | 361 kts | 264° |
| 2026-05-01 12:28 | 32.83585 | 133.31386 | 29886 ft | 362 kts | 263° |
| 2026-05-01 12:29 | 32.81422 | 133.22767 | 29879 ft | 362 kts | 263° |
| 2026-05-01 12:29 | 32.79299 | 133.14348 | 29884 ft | 353 kts | 263° |
| 2026-05-01 12:30 | 32.77887 | 133.08735 | 29511 ft | 353 kts | 263° |
| 2026-05-01 12:30 | 32.77180 | 133.05952 | 29052 ft | 346 kts | 263° |
| 2026-05-01 12:30 | 32.76480 | 133.03239 | 28582 ft | 343 kts | 261° |
| 2026-05-01 12:31 | 32.75535 | 133.00655 | 28075 ft | 348 kts | 254° |
| 2026-05-01 12:31 | 32.74331 | 132.98152 | 27617 ft | 351 kts | 249° |
| 2026-05-01 12:31 | 32.72830 | 132.95811 | 27147 ft | 358 kts | 242° |
| 2026-05-01 12:31 | 32.71211 | 132.93578 | 26677 ft | 356 kts | 241° |
| 2026-05-01 12:32 | 32.69586 | 132.91378 | 26215 ft | 353 kts | 241° |
| 2026-05-01 12:32 | 32.66362 | 132.87017 | 25295 ft | 349 kts | 241° |
| 2026-05-01 12:32 | 32.64769 | 132.84853 | 24847 ft | 347 kts | 241° |
| 2026-05-01 12:33 | 32.63187 | 132.82697 | 24377 ft | 346 kts | 241° |
| 2026-05-01 12:33 | 32.61608 | 132.80542 | 23911 ft | 345 kts | 241° |
| 2026-05-01 12:33 | 32.60055 | 132.78421 | 23452 ft | 345 kts | 241° |
| 2026-05-01 12:33 | 32.58485 | 132.76276 | 22929 ft | 344 kts | 241° |
| 2026-05-01 12:34 | 32.56922 | 132.74145 | 22456 ft | 341 kts | 240° |
| 2026-05-01 12:34 | 32.55369 | 132.72028 | 22001 ft | 339 kts | 240° |
| 2026-05-01 12:34 | 32.53831 | 132.69932 | 21547 ft | 336 kts | 240° |
| 2026-05-01 12:34 | 32.52302 | 132.67849 | 21111 ft | 333 kts | 239° |
| 2026-05-01 12:35 | 32.50785 | 132.65784 | 20683 ft | 331 kts | 239° |
| 2026-05-01 12:35 | 32.49277 | 132.63730 | 20260 ft | 329 kts | 239° |
| 2026-05-01 12:35 | 32.47779 | 132.61692 | 19821 ft | 327 kts | 238° |
| 2026-05-01 12:35 | 32.46291 | 132.59667 | 19408 ft | 325 kts | 238° |
| 2026-05-01 12:36 | 32.44808 | 132.57651 | 18992 ft | 323 kts | 238° |
| 2026-05-01 12:36 | 32.43335 | 132.55650 | 18575 ft | 322 kts | 237° |
| 2026-05-01 12:36 | 32.41866 | 132.53654 | 18151 ft | 321 kts | 237° |
| 2026-05-01 12:36 | 32.40402 | 132.51668 | 17670 ft | 319 kts | 237° |
| 2026-05-01 12:37 | 32.38965 | 132.49720 | 17224 ft | 317 kts | 237° |
| 2026-05-01 12:37 | 32.37566 | 132.47709 | 16585 ft | 318 kts | 240° |
| 2026-05-01 12:37 | 32.36254 | 132.45588 | 15958 ft | 320 kts | 242° |
| 2026-05-01 12:37 | 32.34969 | 132.43440 | 15491 ft | 318 kts | 242° |
| 2026-05-01 12:38 | 32.33697 | 132.41310 | 15072 ft | 315 kts | 242° |
| 2026-05-01 12:38 | 32.32442 | 132.39218 | 14528 ft | 312 kts | 241° |
| 2026-05-01 12:38 | 32.31167 | 132.37097 | 13788 ft | 321 kts | 241° |
| 2026-05-01 12:38 | 32.29858 | 132.34926 | 12974 ft | 328 kts | 240° |
| 2026-05-01 12:39 | 32.28517 | 132.32714 | 12153 ft | 334 kts | 240° |
| 2026-05-01 12:39 | 32.27153 | 132.30471 | 11369 ft | 339 kts | 240° |
| 2026-05-01 12:39 | 32.25777 | 132.28219 | 10804 ft | 332 kts | 240° |
| 2026-05-01 12:39 | 32.24467 | 132.26093 | 10638 ft | 308 kts | 240° |
| 2026-05-01 12:40 | 32.23246 | 132.24117 | 10489 ft | 288 kts | 240° |
| 2026-05-01 12:40 | 32.22097 | 132.22250 | 10377 ft | 275 kts | 240° |
| 2026-05-01 12:40 | 32.20989 | 132.20442 | 10201 ft | 269 kts | 241° |
| 2026-05-01 12:40 | 32.19904 | 132.18666 | 9871 ft | 265 kts | 241° |
| 2026-05-01 12:41 | 32.18824 | 132.16899 | 9329 ft | 267 kts | 241° |
| 2026-05-01 12:41 | 32.17737 | 132.15120 | 8866 ft | 265 kts | 241° |
| 2026-05-01 12:41 | 32.16700 | 132.13429 | 8523 ft | 261 kts | 241° |
| 2026-05-01 12:41 | 32.15646 | 132.11712 | 8223 ft | 258 kts | 241° |
| 2026-05-01 12:42 | 32.14594 | 132.09996 | 7933 ft | 258 kts | 242° |
| 2026-05-01 12:42 | 32.13542 | 132.08281 | 7634 ft | 258 kts | 242° |
| 2026-05-01 12:42 | 32.12489 | 132.06566 | 7345 ft | 258 kts | 242° |
| 2026-05-01 12:42 | 32.11433 | 132.04846 | 7033 ft | 259 kts | 242° |
| 2026-05-01 12:43 | 32.10373 | 132.03122 | 6723 ft | 261 kts | 242° |
| 2026-05-01 12:43 | 32.09309 | 132.01393 | 6424 ft | 261 kts | 242° |
| 2026-05-01 12:43 | 32.08239 | 131.99655 | 6107 ft | 262 kts | 242° |
| 2026-05-01 12:43 | 32.07170 | 131.97921 | 5812 ft | 261 kts | 242° |
| 2026-05-01 12:44 | 32.06103 | 131.96190 | 5520 ft | 260 kts | 242° |
| 2026-05-01 12:44 | 32.05042 | 131.94471 | 5238 ft | 259 kts | 242° |
| 2026-05-01 12:44 | 32.02939 | 131.91063 | 4666 ft | 258 kts | 241° |
| 2026-05-01 12:45 | 32.00825 | 131.87640 | 4080 ft | 258 kts | 241° |
| 2026-05-01 12:45 | 31.99773 | 131.85938 | 3801 ft | 257 kts | 240° |
| 2026-05-01 12:45 | 31.98721 | 131.84237 | 3526 ft | 256 kts | 240° |
| 2026-05-01 12:46 | 31.97675 | 131.82547 | 3247 ft | 254 kts | 240° |
| 2026-05-01 12:46 | 31.96636 | 131.80869 | 2954 ft | 252 kts | 239° |
| 2026-05-01 12:46 | 31.95617 | 131.79224 | 2819 ft | 244 kts | 239° |
| 2026-05-01 12:46 | 31.94633 | 131.77637 | 2705 ft | 236 kts | 239° |
| 2026-05-01 12:47 | 31.93682 | 131.76102 | 2594 ft | 228 kts | 239° |
| 2026-05-01 12:47 | 31.92765 | 131.74624 | 2500 ft | 220 kts | 239° |
| 2026-05-01 12:47 | 31.91881 | 131.73201 | 2408 ft | 211 kts | 239° |
| 2026-05-01 12:47 | 31.91029 | 131.71831 | 2320 ft | 203 kts | 239° |
| 2026-05-01 12:48 | 31.90200 | 131.70497 | 2123 ft | 202 kts | 239° |
| 2026-05-01 12:48 | 31.89623 | 131.69060 | 2022 ft | 192 kts | 265° |
| 2026-05-01 12:48 | 31.89421 | 131.67508 | 2010 ft | 191 kts | 266° |
| 2026-05-01 12:48 | 31.89257 | 131.65965 | 2010 ft | 188 kts | 268° |
| 2026-05-01 12:49 | 31.89131 | 131.64432 | 2006 ft | 189 kts | 269° |
| 2026-05-01 12:49 | 31.89017 | 131.62914 | 2015 ft | 180 kts | 269° |
| 2026-05-01 12:49 | 31.88913 | 131.61501 | 2005 ft | 167 kts | 269° |
| 2026-05-01 12:49 | 31.88817 | 131.60176 | 2003 ft | 162 kts | 270° |
| 2026-05-01 12:50 | 31.88722 | 131.58857 | 2012 ft | 158 kts | 270° |
| 2026-05-01 12:50 | 31.88631 | 131.57598 | 1889 ft | 151 kts | 269° |
| 2026-05-01 12:50 | 31.88542 | 131.56372 | 1715 ft | 150 kts | 269° |
| 2026-05-01 12:50 | 31.88455 | 131.55157 | 1531 ft | 148 kts | 269° |
| 2026-05-01 12:51 | 31.88369 | 131.53969 | 1328 ft | 144 kts | 268° |
| 2026-05-01 12:51 | 31.88283 | 131.52773 | 1135 ft | 149 kts | 268° |
| 2026-05-01 12:51 | 31.88119 | 131.50514 | 758 ft | 130 kts | 266° |
| 2026-05-01 12:52 | 31.88046 | 131.49490 | 584 ft | 123 kts | 265° |
| 2026-05-01 12:52 | 31.87906 | 131.47538 | 290 ft | 118 kts | 267° |
| 2026-05-01 12:52 | 31.87837 | 131.46579 | 263 ft | 124 kts | 268° |
| 2026-05-01 12:53 | 31.87726 | 131.44377 | 1939 ft | 137 kts | 271° |
| 2026-05-01 12:53 | 31.87604 | 131.43090 | 2349 ft | 169 kts | 265° |
| 2026-05-01 12:53 | 31.87065 | 131.41790 | 2534 ft | 201 kts | 231° |
| 2026-05-01 12:54 | 31.85739 | 131.40867 | 2880 ft | 239 kts | 211° |
| 2026-05-01 12:54 | 31.82593 | 131.39143 | 4126 ft | 257 kts | 212° |
| 2026-05-01 12:54 | 31.80964 | 131.38233 | 4452 ft | 262 kts | 212° |
| 2026-05-01 12:55 | 31.77348 | 131.38018 | 4507 ft | 275 kts | 156° |
| 2026-05-01 12:55 | 31.75827 | 131.39387 | 4512 ft | 279 kts | 126° |
| 2026-05-01 12:55 | 31.75003 | 131.41416 | 4515 ft | 273 kts | 95° |
| 2026-05-01 12:56 | 31.74896 | 131.43591 | 4863 ft | 260 kts | 84° |
| 2026-05-01 12:56 | 31.74915 | 131.45698 | 4952 ft | 260 kts | 83° |
| 2026-05-01 12:56 | 31.74934 | 131.47807 | 5000 ft | 254 kts | 83° |
| 2026-05-01 12:56 | 31.74956 | 131.49881 | 4999 ft | 253 kts | 82° |
| 2026-05-01 12:57 | 31.74979 | 131.51945 | 5003 ft | 251 kts | 82° |
| 2026-05-01 12:57 | 31.75155 | 131.55984 | 4982 ft | 242 kts | 64° |
| 2026-05-01 12:57 | 31.75832 | 131.57728 | 4852 ft | 232 kts | 54° |
| 2026-05-01 12:58 | 31.76612 | 131.59412 | 4473 ft | 237 kts | 54° |
| 2026-05-01 12:58 | 31.77419 | 131.61125 | 4102 ft | 241 kts | 53° |
| 2026-05-01 12:58 | 31.78239 | 131.62864 | 3734 ft | 245 kts | 53° |
| 2026-05-01 12:59 | 31.79915 | 131.66413 | 3059 ft | 249 kts | 53° |
| 2026-05-01 12:59 | 31.80787 | 131.68172 | 2757 ft | 249 kts | 53° |
| 2026-05-01 12:59 | 31.82582 | 131.71646 | 2140 ft | 245 kts | 47° |
| 2026-05-01 13:00 | 31.85318 | 131.72975 | 2015 ft | 211 kts | 347° |
| 2026-05-01 13:00 | 31.86620 | 131.72284 | 2005 ft | 207 kts | 316° |
| 2026-05-01 13:01 | 31.87935 | 131.69298 | 2007 ft | 207 kts | 293° |
| 2026-05-01 13:01 | 31.88469 | 131.67721 | 2014 ft | 207 kts | 292° |
| 2026-05-01 13:01 | 31.89006 | 131.64978 | 2010 ft | 211 kts | 274° |
| 2026-05-01 13:02 | 31.89012 | 131.63254 | 1993 ft | 209 kts | 271° |
| 2026-05-01 13:07 | 31.87509 | 131.44353 | 33 ft | 15 kts | 265° |
| 2026-05-01 13:07 | 31.87501 | 131.44220 | 33 ft | 17 kts | 266° |
| 2026-05-01 13:07 | 31.87467 | 131.44134 | 34 ft | 12 kts | 182° |
| 2026-05-01 13:08 | 31.87385 | 131.44145 | 32 ft | 12 kts | 175° |
| 2026-05-01 13:08 | 31.87353 | 131.44148 | 34 ft | 0 kts | 174° |